Time;durP1;ratioP1;P1;durP2;ratioP2;P2;SDS_P1;SDS_P2;PMS_P1;PMS_P2;Temp;Humidity;BMP_temperature;BMP_pressure;BME280_temperature;BME280_humidity;BME280_pressure;Samples;Min_cycle;Max_cycle;Signal;HPM_P1;HPM_P2
2023/06/21 00:00:15;;;;;;;18.35;11.02;;;;;;;23.22;73.30;101266.94;5049575;28;20534;-47
2023/06/21 00:02:42;;;;;;;13.73;9.20;;;;;;;23.21;72.86;101263.41;5049453;28;20081;-45
2023/06/21 00:05:07;;;;;;;16.98;10.07;;;;;;;23.19;73.44;101270.56;5048604;28;20067;-47
2023/06/21 00:07:33;;;;;;;16.35;9.85;;;;;;;23.13;73.25;101270.75;5048789;28;20037;-44
2023/06/21 00:09:59;;;;;;;16.20;10.50;;;;;;;23.14;72.99;101266.31;5049555;28;20578;-48
2023/06/21 00:12:25;;;;;;;19.15;10.95;;;;;;;23.08;73.58;101263.84;5048778;28;20048;-48
2023/06/21 00:14:51;;;;;;;24.05;12.02;;;;;;;22.99;74.16;101265.03;5049496;28;20531;-46
2023/06/21 00:17:16;;;;;;;19.08;11.77;;;;;;;23.03;74.12;101256.00;5048605;28;20079;-45
2023/06/21 00:19:41;;;;;;;21.30;12.20;;;;;;;22.99;74.16;101257.03;5048934;28;20048;-50
2023/06/21 00:22:07;;;;;;;21.25;12.60;;;;;;;22.80;74.97;101259.41;5049551;28;20029;-46
2023/06/21 00:24:32;;;;;;;19.77;11.55;;;;;;;22.83;74.68;101269.06;5047883;28;20098;-47
2023/06/21 00:26:57;;;;;;;21.75;12.10;;;;;;;22.72;75.57;101264.06;5047117;28;20120;-46
2023/06/21 00:29:23;;;;;;;20.15;12.10;;;;;;;22.82;74.67;101265.53;5048688;28;20037;-48
2023/06/21 00:31:48;;;;;;;19.25;11.80;;;;;;;22.80;75.00;101275.34;5049377;28;20487;-46
2023/06/21 00:34:13;;;;;;;18.35;11.95;;;;;;;22.80;74.45;101285.13;5048803;28;20135;-48
2023/06/21 00:36:41;;;;;;;21.40;11.70;;;;;;;22.75;74.01;101292.38;5049019;28;20025;-46
2023/06/21 00:39:08;;;;;;;18.55;10.90;;;;;;;22.78;74.43;101301.09;5049307;28;20119;-45
2023/06/21 00:41:33;;;;;;;18.77;10.38;;;;;;;22.88;73.54;101304.34;5049125;28;20507;-48
2023/06/21 00:43:58;;;;;;;17.20;10.45;;;;;;;22.80;74.08;101307.25;5049488;28;20029;-46
2023/06/21 00:46:24;;;;;;;17.60;10.10;;;;;;;22.84;73.54;101300.03;5048181;28;20119;-47
2023/06/21 00:48:49;;;;;;;15.65;9.80;;;;;;;22.81;73.62;101294.84;5050794;28;20037;-47
2023/06/21 00:51:15;;;;;;;18.58;10.35;;;;;;;22.72;73.66;101300.38;5052891;28;20087;-45
2023/06/21 00:53:41;;;;;;;18.70;10.60;;;;;;;22.68;73.63;101323.53;5053710;28;20040;-46
2023/06/21 00:56:06;;;;;;;19.85;10.80;;;;;;;22.70;73.35;101339.41;5052843;28;20057;-46
2023/06/21 00:58:33;;;;;;;19.88;11.30;;;;;;;22.58;73.83;101344.19;5052756;28;20206;-49
2023/06/21 01:00:59;;;;;;;16.75;10.77;;;;;;;22.63;73.78;101346.69;5052777;28;20025;-47
2023/06/21 01:03:26;;;;;;;15.77;9.90;;;;;;;22.61;73.34;101333.47;5052782;28;20411;-47
2023/06/21 01:06:12;;;;;;;16.50;10.32;;;;;;;22.56;73.91;101337.19;5052751;28;20033;-49
2023/06/21 01:09:02;;;;;;;19.02;10.85;;;;;;;22.56;73.86;101346.03;5053238;28;20036;-44
2023/06/21 01:11:31;;;;;;;16.42;9.88;;;;;;;22.60;73.73;101347.66;5051308;28;20087;-46
2023/06/21 01:14:32;;;;;;;17.67;10.68;;;;;;;22.62;73.76;101344.97;5053730;28;20029;-46
2023/06/21 01:17:00;;;;;;;17.58;10.20;;;;;;;22.66;73.08;101344.84;5053332;28;20037;-47
2023/06/21 01:19:50;;;;;;;17.20;10.00;;;;;;;22.61;73.19;101338.78;5052893;28;20115;-46
2023/06/21 01:22:55;;;;;;;19.05;11.10;;;;;;;22.46;74.04;101351.63;5052487;28;20119;-46
2023/06/21 01:25:41;;;;;;;18.83;10.85;;;;;;;22.50;74.07;101343.53;5051157;28;20059;-45
2023/06/21 01:28:28;;;;;;;19.08;10.63;;;;;;;22.47;74.03;101350.72;5052336;28;20127;-46
2023/06/21 01:30:57;;;;;;;18.38;10.95;;;;;;;22.51;73.92;101347.91;5052266;28;20546;-48
2023/06/21 01:33:24;;;;;;;18.92;10.10;;;;;;;22.48;73.42;101347.16;5052036;28;20071;-46
2023/06/21 01:35:52;;;;;;;16.67;9.73;;;;;;;22.48;73.45;101342.72;5051825;28;20039;-48
2023/06/21 01:38:18;;;;;;;18.70;10.35;;;;;;;22.38;73.88;101343.88;5051547;28;20065;-47
2023/06/21 01:40:44;;;;;;;16.88;9.75;;;;;;;22.38;73.87;101349.19;5052096;28;20029;-45
2023/06/21 01:43:10;;;;;;;17.88;9.80;;;;;;;22.37;73.59;101347.44;5052393;28;20033;-47
2023/06/21 01:45:36;;;;;;;16.52;9.13;;;;;;;22.43;73.50;101343.75;5051190;28;20518;-45
2023/06/21 01:48:02;;;;;;;16.65;10.02;;;;;;;22.34;73.69;101344.00;5052378;28;20395;-46
2023/06/21 01:50:29;;;;;;;15.15;8.93;;;;;;;22.36;73.31;101340.41;5051789;28;20067;-46
2023/06/21 01:52:55;;;;;;;15.30;9.23;;;;;;;22.38;73.42;101343.88;5053027;28;20032;-47
2023/06/21 01:55:22;;;;;;;18.05;10.20;;;;;;;22.21;73.74;101346.97;5052435;28;20076;-47
2023/06/21 01:57:47;;;;;;;16.08;9.38;;;;;;;22.36;73.36;101348.38;5051692;28;20126;-47
2023/06/21 02:00:17;;;;;;;17.13;9.73;;;;;;;22.30;73.66;101345.88;5050809;28;20260;-44
2023/06/21 02:03:03;;;;;;;16.20;9.60;;;;;;;22.35;73.21;101348.41;5052506;28;20033;-45
2023/06/21 02:05:30;;;;;;;16.83;9.38;;;;;;;22.33;73.46;101355.53;5051274;28;20041;-45
2023/06/21 02:07:56;;;;;;;15.82;9.40;;;;;;;22.33;73.09;101356.41;5052854;28;20087;-45
2023/06/21 02:10:22;;;;;;;16.67;9.52;;;;;;;22.31;73.16;101365.34;5052496;28;20041;-45
2023/06/21 02:12:49;;;;;;;21.33;10.45;;;;;;;22.32;72.93;101377.72;5052588;28;20090;-48
2023/06/21 02:15:14;;;;;;;17.35;10.07;;;;;;;22.23;73.31;101378.81;5051118;28;20552;-46
2023/06/21 02:17:40;;;;;;;20.83;10.75;;;;;;;22.10;74.02;101383.59;5051939;28;20040;-47
2023/06/21 02:20:12;;;;;;;17.95;10.32;;;;;;;22.21;73.74;101381.50;5051632;28;20080;-50
2023/06/21 02:22:39;;;;;;;16.95;9.77;;;;;;;22.17;73.38;101379.84;5051911;28;20044;-48
2023/06/21 02:25:04;;;;;;;17.67;9.45;;;;;;;22.25;72.88;101371.69;5052015;28;20029;-46
2023/06/21 02:27:30;;;;;;;18.00;9.68;;;;;;;22.18;73.20;101375.44;5049917;28;20041;-48
2023/06/21 02:29:57;;;;;;;22.67;10.50;;;;;;;22.18;72.99;101372.78;5052333;28;20056;-45
2023/06/21 02:32:22;;;;;;;16.92;9.45;;;;;;;22.18;72.74;101376.31;5052030;28;20126;-48
2023/06/21 02:34:47;;;;;;;17.60;9.70;;;;;;;22.20;72.63;101379.75;5052409;28;20503;-45
2023/06/21 02:37:12;;;;;;;16.80;9.77;;;;;;;22.17;73.03;101387.81;5051067;28;20116;-45
2023/06/21 02:39:38;;;;;;;21.25;10.55;;;;;;;22.10;73.31;101393.34;5050921;28;20094;-46
2023/06/21 02:42:04;;;;;;;20.52;9.65;;;;;;;22.15;72.94;101389.63;5050180;28;20041;-48
2023/06/21 02:44:29;;;;;;;19.23;10.23;;;;;;;22.13;73.20;101391.50;5048530;28;20037;-48
2023/06/21 02:46:56;;;;;;;16.20;9.30;;;;;;;22.15;73.51;101394.06;5049588;28;20045;-51
2023/06/21 02:49:22;;;;;;;17.15;9.32;;;;;;;22.16;73.17;101388.72;5050262;28;20033;-46
2023/06/21 02:51:50;;;;;;;18.17;9.95;;;;;;;22.11;73.15;101400.38;5051038;28;20033;-48
2023/06/21 02:54:16;;;;;;;18.58;9.50;;;;;;;22.01;73.92;101396.25;5050399;28;20403;-48
2023/06/21 02:56:43;;;;;;;17.73;9.60;;;;;;;22.03;73.98;101410.31;5050348;28;20108;-49
2023/06/21 02:59:08;;;;;;;15.48;8.73;;;;;;;22.08;73.99;101398.69;5050572;28;20029;-47
2023/06/21 03:01:34;;;;;;;17.63;9.30;;;;;;;22.14;73.53;101403.81;5050253;28;20051;-50
2023/06/21 03:03:59;;;;;;;18.42;8.50;;;;;;;22.20;73.70;101414.28;5050509;28;20099;-51
2023/06/21 03:06:25;;;;;;;15.02;8.75;;;;;;;22.18;73.57;101415.25;5049578;28;20029;-47
2023/06/21 03:08:51;;;;;;;14.57;8.45;;;;;;;22.11;73.56;101416.31;5050423;28;20048;-49
2023/06/21 03:11:17;;;;;;;16.20;8.40;;;;;;;22.10;73.92;101427.84;5049758;28;20045;-45
2023/06/21 03:13:42;;;;;;;15.30;7.90;;;;;;;22.15;73.53;101432.13;5050185;28;20037;-46
2023/06/21 03:16:08;;;;;;;12.63;7.15;;;;;;;22.17;73.80;101429.44;5050202;28;20048;-51
2023/06/21 03:18:33;;;;;;;12.75;6.88;;;;;;;22.28;73.70;101432.69;5049711;28;20028;-47
2023/06/21 03:21:01;;;;;;;12.90;6.25;;;;;;;22.16;73.89;101441.84;5049944;28;20033;-51
2023/06/21 03:23:27;;;;;;;11.52;6.32;;;;;;;22.24;73.42;101446.97;5049792;28;20192;-47
2023/06/21 03:25:52;;;;;;;11.68;5.88;;;;;;;22.27;73.08;101453.06;5049571;28;20060;-47
2023/06/21 03:28:18;;;;;;;9.85;5.40;;;;;;;22.19;73.42;101459.50;5048683;28;20120;-45
2023/06/21 03:30:43;;;;;;;11.68;5.35;;;;;;;22.21;73.09;101457.66;5048972;28;20032;-49
2023/06/21 03:33:10;;;;;;;9.65;4.85;;;;;;;22.25;72.67;101454.91;5050142;28;20415;-47
2023/06/21 03:35:36;;;;;;;9.27;4.35;;;;;;;22.18;72.50;101450.66;5048842;28;20617;-51
2023/06/21 03:38:01;;;;;;;8.35;4.20;;;;;;;22.29;71.99;101461.00;5049860;28;20021;-52
2023/06/21 03:40:27;;;;;;;7.97;3.92;;;;;;;22.33;72.38;101460.00;5049488;28;20040;-48
2023/06/21 03:42:52;;;;;;;9.13;3.90;;;;;;;22.23;72.13;101462.03;5050245;28;20086;-50
2023/06/21 03:45:18;;;;;;;5.32;3.38;;;;;;;22.37;71.91;101463.47;5049566;28;20033;-50
2023/06/21 03:47:43;;;;;;;6.15;3.40;;;;;;;22.42;71.37;101475.72;5049192;28;20029;-44
2023/06/21 03:50:10;;;;;;;7.38;3.42;;;;;;;22.43;71.03;101472.16;5049717;28;20457;-48
2023/06/21 03:52:36;;;;;;;5.15;3.10;;;;;;;22.46;71.19;101469.41;5049367;28;20111;-46
2023/06/21 03:55:02;;;;;;;5.60;3.10;;;;;;;22.51;70.89;101470.16;5049879;28;20021;-47
2023/06/21 03:57:27;;;;;;;6.93;3.08;;;;;;;22.34;70.81;101480.34;5049115;28;20116;-45
2023/06/21 03:59:53;;;;;;;4.05;2.88;;;;;;;22.44;70.34;101483.66;5050112;28;20411;-47
2023/06/21 04:02:20;;;;;;;6.40;2.90;;;;;;;22.48;69.84;101483.53;5049391;28;20040;-48
2023/06/21 04:04:47;;;;;;;5.93;2.70;;;;;;;22.57;69.96;101480.63;5049944;28;20058;-44
2023/06/21 04:07:12;;;;;;;6.82;2.72;;;;;;;22.61;69.73;101492.94;5049022;28;20068;-50
2023/06/21 04:09:38;;;;;;;4.95;2.83;;;;;;;22.67;69.37;101492.78;5049679;28;20029;-45
2023/06/21 04:12:03;;;;;;;6.78;2.78;;;;;;;22.69;68.85;101489.22;5049715;28;20040;-47
2023/06/21 04:14:29;;;;;;;5.05;2.80;;;;;;;22.63;68.10;101499.06;5049465;28;20029;-48
2023/06/21 04:16:54;;;;;;;4.03;2.55;;;;;;;22.71;68.33;101488.22;5048747;28;20033;-48
2023/06/21 04:19:19;;;;;;;5.05;2.65;;;;;;;22.72;67.46;101497.06;5048720;28;20029;-48
2023/06/21 04:21:45;;;;;;;4.63;2.17;;;;;;;22.78;67.28;101499.59;5049416;28;20114;-53
2023/06/21 04:24:10;;;;;;;3.58;2.17;;;;;;;22.57;67.49;101501.88;5049125;28;20172;-46
2023/06/21 04:26:35;;;;;;;3.78;2.20;;;;;;;22.46;68.02;101508.38;5048361;28;20033;-49
2023/06/21 04:29:01;;;;;;;4.35;2.40;;;;;;;22.43;68.15;101501.38;5047959;28;20030;-47
2023/06/21 04:31:28;;;;;;;7.25;2.35;;;;;;;22.50;67.92;101507.41;5047784;28;20041;-50
2023/06/21 04:33:54;;;;;;;3.22;2.20;;;;;;;22.54;68.84;101504.63;5049312;28;20037;-45
2023/06/21 04:36:19;;;;;;;4.55;2.17;;;;;;;22.67;67.96;101508.72;5048489;28;20029;-47
2023/06/21 04:38:49;;;;;;;5.30;2.30;;;;;;;22.86;67.76;101509.13;5049285;28;20044;-49
2023/06/21 04:41:18;;;;;;;5.97;2.47;;;;;;;22.87;67.58;101512.66;5048452;28;20059;-52
2023/06/21 04:43:43;;;;;;;4.85;2.20;;;;;;;22.86;67.11;101510.91;5049186;28;20047;-46
2023/06/21 04:46:09;;;;;;;6.10;2.50;;;;;;;22.87;67.41;101504.69;5048516;28;20037;-48
2023/06/21 04:48:36;;;;;;;3.92;2.30;;;;;;;22.87;67.82;101510.00;5048740;28;20404;-50
2023/06/21 04:51:01;;;;;;;4.50;2.28;;;;;;;22.98;67.67;101506.13;5048810;28;20087;-47
2023/06/21 04:53:29;;;;;;;3.25;2.22;;;;;;;23.08;67.19;101513.84;5048738;28;20449;-45
2023/06/21 04:55:58;;;;;;;4.97;2.20;;;;;;;23.14;66.69;101519.88;5048593;28;20091;-48
2023/06/21 04:58:24;;;;;;;5.97;2.00;;;;;;;23.21;66.65;101517.91;5048685;28;20039;-47
2023/06/21 05:00:49;;;;;;;4.15;2.30;;;;;;;23.15;65.62;101515.41;5048739;28;20406;-48
2023/06/21 05:03:15;;;;;;;4.43;2.35;;;;;;;23.06;66.25;101516.53;5048652;28;20128;-51
2023/06/21 05:05:41;;;;;;;5.28;2.60;;;;;;;23.21;66.10;101528.53;5048325;28;20088;-45
2023/06/21 05:08:06;;;;;;;5.65;2.50;;;;;;;23.34;65.82;101538.78;5048875;28;20531;-49
2023/06/21 05:10:32;;;;;;;5.05;2.58;;;;;;;23.44;65.03;101537.59;5048329;28;20503;-49
2023/06/21 05:12:57;;;;;;;4.28;2.15;;;;;;;23.43;64.95;101542.97;5049041;28;20025;-50
2023/06/21 05:15:23;;;;;;;5.35;2.40;;;;;;;23.42;64.19;101547.41;5048298;28;20033;-46
2023/06/21 05:17:48;;;;;;;9.55;7.03;;;;;;;23.49;65.69;101545.47;5046975;28;20028;-45
2023/06/21 05:20:13;;;;;;;5.05;2.85;;;;;;;24.49;62.67;101554.78;5048294;28;20502;-48
2023/06/21 05:22:41;;;;;;;7.45;2.38;;;;;;;25.59;55.87;101546.44;5052717;23;20073;-46
2023/06/21 05:25:07;;;;;;;5.70;2.72;;;;;;;26.36;53.96;101550.50;5008235;28;20100;-46
2023/06/21 05:27:32;;;;;;;6.22;2.60;;;;;;;26.79;51.91;101549.56;5008065;28;20074;-49
2023/06/21 05:29:58;;;;;;;6.57;2.70;;;;;;;27.23;50.81;101550.31;5008898;28;20026;-47
2023/06/21 05:32:25;;;;;;;6.10;2.80;;;;;;;27.11;50.79;101546.38;5008829;28;20096;-49
2023/06/21 05:34:51;;;;;;;7.50;2.72;;;;;;;26.97;52.05;101543.44;5009949;28;20034;-50
2023/06/21 05:37:16;;;;;;;6.50;2.72;;;;;;;27.24;51.31;101550.25;5011151;28;20026;-47
2023/06/21 05:39:43;;;;;;;7.13;2.53;;;;;;;27.54;49.16;101550.69;5012698;28;20127;-47
2023/06/21 05:42:08;;;;;;;7.85;2.67;;;;;;;28.03;47.31;101553.72;5012971;28;20156;-46
2023/06/21 05:44:34;;;;;;;4.70;2.40;;;;;;;28.66;47.21;101555.06;5012439;28;20033;-50
2023/06/21 05:46:59;;;;;;;4.65;2.25;;;;;;;28.84;44.83;101562.19;5012064;28;20449;-47
2023/06/21 05:49:25;;;;;;;6.28;2.30;;;;;;;28.72;45.90;101557.44;5011814;28;20044;-47
2023/06/21 05:51:50;;;;;;;5.05;2.10;;;;;;;28.10;47.21;101561.41;5011502;28;20112;-49
2023/06/21 05:54:15;;;;;;;4.90;1.90;;;;;;;28.47;46.48;101557.81;5012055;28;20034;-50
2023/06/21 05:56:40;;;;;;;3.22;2.00;;;;;;;29.13;44.12;101557.97;5012220;28;20030;-49
2023/06/21 05:59:06;;;;;;;6.10;2.00;;;;;;;28.78;45.30;101565.19;5012646;28;20037;-47
2023/06/21 06:01:31;;;;;;;3.60;2.08;;;;;;;28.47;45.29;101562.28;5012329;28;20117;-48
2023/06/21 06:03:56;;;;;;;6.30;2.10;;;;;;;28.33;46.28;101571.03;5012081;28;20117;-44
2023/06/21 06:06:22;;;;;;;5.10;1.77;;;;;;;27.36;48.40;101571.13;5011344;28;20058;-51
2023/06/21 06:08:47;;;;;;;5.13;1.90;;;;;;;28.11;47.17;101575.69;5011941;28;20057;-44
2023/06/21 06:11:12;;;;;;;4.63;1.65;;;;;;;29.30;47.02;101578.56;5011883;28;20061;-47
2023/06/21 06:13:38;;;;;;;5.55;1.90;;;;;;;29.17;43.59;101583.69;5011970;28;20524;-49
2023/06/21 06:16:04;;;;;;;5.40;1.80;;;;;;;29.29;43.28;101583.06;5012151;28;20029;-50
2023/06/21 06:18:29;;;;;;;5.40;1.90;;;;;;;29.04;45.03;101596.91;5011383;28;20033;-51
2023/06/21 06:20:54;;;;;;;6.72;2.00;;;;;;;28.76;45.32;101593.03;5011927;28;20030;-51
2023/06/21 06:23:20;;;;;;;5.80;1.80;;;;;;;29.32;43.57;101601.72;5010910;28;20081;-52
2023/06/21 06:25:45;;;;;;;4.38;1.80;;;;;;;30.18;41.74;101605.97;5011182;28;20125;-46
2023/06/21 06:28:11;;;;;;;5.30;1.70;;;;;;;29.81;41.07;101604.44;5011711;28;20030;-49
2023/06/21 06:30:36;;;;;;;5.35;1.83;;;;;;;30.51;39.49;101605.88;5011250;28;20295;-49
2023/06/21 06:33:01;;;;;;;5.20;1.60;;;;;;;30.41;40.55;101610.03;5011502;28;20104;-50
2023/06/21 06:35:27;;;;;;;4.15;1.70;;;;;;;30.78;39.96;101616.84;5010764;28;20088;-45
2023/06/21 06:37:53;;;;;;;4.57;1.70;;;;;;;30.48;39.54;101606.94;5011423;28;20313;-51
2023/06/21 06:40:18;;;;;;;4.72;1.50;;;;;;;31.02;40.20;101608.19;5009810;28;20386;-48
2023/06/21 06:42:43;;;;;;;6.50;1.60;;;;;;;30.03;40.86;101613.06;5011332;28;20117;-48
2023/06/21 06:45:09;;;;;;;6.00;1.90;;;;;;;30.41;39.90;101620.78;5011462;28;20049;-51
2023/06/21 06:47:34;;;;;;;5.28;1.73;;;;;;;29.91;41.68;101620.94;5009252;28;20041;-51
2023/06/21 06:50:03;;;;;;;3.83;1.60;;;;;;;28.96;45.47;101628.66;5011403;28;20064;-50
2023/06/21 06:52:28;;;;;;;6.50;1.85;;;;;;;29.50;43.04;101632.13;5010956;28;20030;-48
2023/06/21 06:54:54;;;;;;;4.50;1.60;;;;;;;29.82;42.28;101633.94;5011270;28;20034;-51
2023/06/21 06:57:19;;;;;;;4.20;1.77;;;;;;;29.80;42.70;101627.78;5010204;28;20111;-51
2023/06/21 06:59:44;;;;;;;4.43;1.55;;;;;;;29.70;42.81;101639.97;5010829;28;20124;-48
2023/06/21 07:02:10;;;;;;;4.88;1.70;;;;;;;29.95;43.38;101634.13;5011187;28;20070;-50
2023/06/21 07:04:35;;;;;;;5.35;1.50;;;;;;;30.30;41.13;101642.06;5010662;28;20113;-49
2023/06/21 07:07:01;;;;;;;5.30;1.70;;;;;;;30.47;40.78;101642.84;5010554;28;20121;-50
2023/06/21 07:09:27;;;;;;;4.57;1.77;;;;;;;30.91;38.78;101642.97;5010393;28;20037;-48
2023/06/21 07:11:56;;;;;;;3.55;1.60;;;;;;;31.10;39.46;101644.59;5011090;28;20092;-48
2023/06/21 07:14:23;;;;;;;5.85;1.50;;;;;;;31.28;37.96;101657.81;5010174;28;20044;-46
2023/06/21 07:16:49;;;;;;;5.95;1.67;;;;;;;30.35;39.30;101656.13;5010355;28;20037;-50
2023/06/21 07:19:14;;;;;;;5.13;1.60;;;;;;;29.39;42.38;101659.56;5010223;28;20034;-50
2023/06/21 07:21:40;;;;;;;5.50;1.60;;;;;;;28.79;42.73;101666.22;5011055;28;20057;-47
2023/06/21 07:24:05;;;;;;;3.17;1.50;;;;;;;28.86;43.49;101667.63;5010578;28;20034;-49
2023/06/21 07:26:31;;;;;;;7.60;1.60;;;;;;;28.02;43.92;101667.25;5009820;28;20038;-48
2023/06/21 07:28:57;;;;;;;3.25;1.58;;;;;;;28.49;42.99;101657.81;5009388;28;20030;-49
2023/06/21 07:31:22;;;;;;;4.00;1.65;;;;;;;28.86;41.90;101659.59;5010447;28;20451;-46
2023/06/21 07:33:48;;;;;;;6.82;1.80;;;;;;;29.65;41.02;101660.84;5010515;28;20067;-47
2023/06/21 07:36:13;;;;;;;4.10;1.50;;;;;;;30.12;39.65;101668.19;5009705;28;20026;-49
2023/06/21 07:38:39;;;;;;;5.65;1.55;;;;;;;30.36;39.57;101665.94;5010794;28;20068;-47
2023/06/21 07:41:04;;;;;;;5.00;1.67;;;;;;;30.74;38.75;101675.38;5010486;28;20033;-46
2023/06/21 07:43:29;;;;;;;5.57;1.60;;;;;;;30.99;36.61;101667.59;5009963;28;20042;-46
2023/06/21 07:45:54;;;;;;;5.07;1.58;;;;;;;30.54;37.38;101665.78;5009750;28;20042;-50
2023/06/21 07:48:20;;;;;;;4.60;1.63;;;;;;;31.44;37.09;101666.69;5009997;28;20129;-51
2023/06/21 07:50:45;;;;;;;4.57;1.90;;;;;;;31.66;34.81;101666.25;5010131;28;20065;-46
2023/06/21 07:53:10;;;;;;;4.45;1.60;;;;;;;30.89;36.71;101670.94;5010400;28;20068;-52
2023/06/21 07:55:36;;;;;;;6.60;1.70;;;;;;;30.76;38.53;101681.56;5009681;28;20054;-49
2023/06/21 07:58:01;;;;;;;3.47;1.70;;;;;;;31.50;37.36;101683.44;5009653;28;20026;-47
2023/06/21 08:00:26;;;;;;;3.83;1.60;;;;;;;31.19;37.23;101688.00;5009278;28;20515;-48
2023/06/21 08:02:52;;;;;;;4.25;1.75;;;;;;;30.52;36.57;101688.34;5010070;28;20034;-50
2023/06/21 08:05:18;;;;;;;5.07;1.95;;;;;;;30.40;39.21;101686.31;5009222;28;20034;-51
2023/06/21 08:07:44;;;;;;;6.68;2.13;;;;;;;29.64;40.54;101682.44;5009407;28;20034;-50
2023/06/21 08:10:10;;;;;;;4.55;2.00;;;;;;;30.97;37.82;101684.81;5009771;28;20049;-49
2023/06/21 08:12:36;;;;;;;4.28;1.90;;;;;;;30.22;39.54;101694.47;5009542;28;20105;-49
2023/06/21 08:15:01;;;;;;;3.80;1.80;;;;;;;30.20;39.31;101693.69;5010117;28;20168;-48
2023/06/21 08:17:26;;;;;;;7.30;2.20;;;;;;;29.30;40.93;101697.59;5008826;28;20378;-50
2023/06/21 08:19:52;;;;;;;5.93;2.10;;;;;;;28.99;42.32;101700.97;5009566;28;20065;-49
2023/06/21 08:22:17;;;;;;;6.65;1.95;;;;;;;29.57;41.66;101703.41;5009104;28;20123;-47
2023/06/21 08:24:43;;;;;;;6.70;2.20;;;;;;;29.13;41.04;101702.09;5009562;28;20172;-48
2023/06/21 08:27:08;;;;;;;5.15;2.28;;;;;;;30.26;40.69;101703.22;5009158;28;20447;-49
2023/06/21 08:29:34;;;;;;;4.88;2.20;;;;;;;28.86;41.68;101713.28;5008851;28;20040;-50
2023/06/21 08:31:59;;;;;;;5.90;2.30;;;;;;;30.04;40.26;101703.56;5009937;28;20026;-51
2023/06/21 08:34:24;;;;;;;5.50;2.22;;;;;;;30.13;41.12;101702.19;5009335;28;20140;-48
2023/06/21 08:36:50;;;;;;;4.38;2.30;;;;;;;30.00;40.74;101706.50;5009383;28;20045;-49
2023/06/21 08:39:15;;;;;;;6.07;2.00;;;;;;;31.06;36.49;101711.22;5008846;28;20065;-50
2023/06/21 08:41:41;;;;;;;7.57;2.08;;;;;;;29.70;39.14;101711.69;5009869;28;20109;-49
2023/06/21 08:44:06;;;;;;;5.20;2.60;;;;;;;29.20;39.83;101717.84;5009636;28;20030;-48
2023/06/21 08:46:35;;;;;;;5.63;2.55;;;;;;;28.34;42.79;101704.19;5008473;28;20500;-52
2023/06/21 08:49:04;;;;;;;6.00;2.60;;;;;;;28.25;43.17;101712.63;5009560;28;20049;-50
2023/06/21 08:51:34;;;;;;;5.53;2.60;;;;;;;27.30;45.78;101718.66;5009641;28;20030;-47
2023/06/21 08:53:59;;;;;;;6.15;2.90;;;;;;;27.83;45.13;101723.50;5009298;28;20041;-49
2023/06/21 08:56:27;;;;;;;5.73;2.80;;;;;;;27.64;45.86;101728.81;5008679;28;20404;-47
2023/06/21 08:59:05;;;;;;;6.45;2.95;;;;;;;27.01;47.44;101727.94;5009214;28;20339;-52
2023/06/21 09:01:39;;;;;;;9.27;3.10;;;;;;;27.23;47.65;101732.38;5009041;28;20042;-49
2023/06/21 09:04:07;;;;;;;8.27;3.55;;;;;;;26.73;49.56;101729.94;5009506;28;20038;-48
2023/06/21 09:06:33;;;;;;;7.32;3.00;;;;;;;27.65;47.40;101737.72;5008422;28;20141;-48
2023/06/21 09:08:59;;;;;;;6.43;3.15;;;;;;;27.92;47.49;101736.50;5009277;28;20454;-47
2023/06/21 09:11:24;;;;;;;8.02;3.30;;;;;;;28.19;45.62;101734.38;5011158;28;20034;-48
2023/06/21 09:13:51;;;;;;;7.43;3.40;;;;;;;28.18;45.29;101735.31;5013075;28;20523;-49
2023/06/21 09:16:17;;;;;;;6.47;3.22;;;;;;;28.61;44.54;101736.84;5012273;28;20049;-50
2023/06/21 09:18:46;;;;;;;9.73;3.20;;;;;;;28.72;44.11;101739.03;5012760;28;20058;-48
2023/06/21 09:21:12;;;;;;;6.65;3.17;;;;;;;28.55;43.33;101735.31;5013013;28;20061;-47
2023/06/21 09:23:40;;;;;;;8.00;3.17;;;;;;;28.10;45.87;101734.78;5011116;28;20094;-45
2023/06/21 09:26:10;;;;;;;6.47;3.28;;;;;;;27.76;45.54;101738.97;5012334;28;20030;-49
2023/06/21 09:28:35;;;;;;;8.77;3.25;;;;;;;27.91;45.77;101740.09;5012415;28;20053;-46
2023/06/21 09:31:01;;;;;;;7.57;3.22;;;;;;;27.82;45.66;101736.03;5012879;28;20044;-46
2023/06/21 09:33:27;;;;;;;9.60;3.35;;;;;;;27.95;47.20;101740.81;5012529;28;20488;-49
2023/06/21 09:35:52;;;;;;;7.43;3.10;;;;;;;27.33;47.91;101742.63;5013084;28;20030;-48
2023/06/21 09:38:26;;;;;;;7.53;3.20;;;;;;;27.73;46.48;101747.16;5012444;28;20080;-49
2023/06/21 09:40:52;;;;;;;9.35;3.42;;;;;;;28.25;43.83;101736.78;5012570;28;20146;-47
2023/06/21 09:43:20;;;;;;;6.30;3.00;;;;;;;28.71;44.54;101739.97;5012241;28;20034;-49
2023/06/21 09:46:05;;;;;;;12.45;3.50;;;;;;;28.22;46.01;101743.16;5011982;28;20037;-46
2023/06/21 09:48:35;;;;;;;10.07;3.17;;;;;;;28.12;45.52;101751.66;5011868;28;20124;-45
2023/06/21 09:51:12;;;;;;;6.00;3.15;;;;;;;28.50;44.52;101752.59;5012735;28;20041;-47
2023/06/21 09:53:41;;;;;;;7.82;3.38;;;;;;;27.63;46.92;101755.69;5011821;28;20034;-49
2023/06/21 09:56:06;;;;;;;8.50;3.00;;;;;;;27.51;45.91;101758.84;5011677;28;20076;-49
2023/06/21 09:58:35;;;;;;;5.35;3.10;;;;;;;27.23;47.52;101756.47;5011832;28;20489;-53
2023/06/21 10:01:07;;;;;;;6.93;3.45;;;;;;;27.77;46.52;101769.31;5012161;28;20401;-50
2023/06/21 10:03:33;;;;;;;7.18;3.20;;;;;;;27.81;47.01;101766.44;5011734;28;20475;-51
2023/06/21 10:06:02;;;;;;;6.32;3.10;;;;;;;28.27;44.99;101771.56;5011395;28;20041;-50
2023/06/21 10:08:29;;;;;;;6.63;3.55;;;;;;;27.94;45.80;101768.56;5011436;28;20420;-50
2023/06/21 10:10:55;;;;;;;4.72;2.88;;;;;;;27.83;45.73;101775.28;5011998;28;20049;-47
2023/06/21 10:13:28;;;;;;;6.22;2.58;;;;;;;27.87;44.47;101772.50;5011390;28;20045;-47
2023/06/21 10:15:55;;;;;;;6.88;3.00;;;;;;;27.35;45.43;101769.34;5011304;28;20122;-51
2023/06/21 10:18:21;;;;;;;8.02;3.20;;;;;;;27.30;46.21;101782.06;5011417;28;20034;-49
2023/06/21 10:20:53;;;;;;;5.95;2.90;;;;;;;27.70;44.17;101776.75;5010958;28;20041;-47
2023/06/21 10:23:18;;;;;;;6.82;3.45;;;;;;;27.63;45.38;101783.31;5011207;28;20128;-47
2023/06/21 10:25:47;;;;;;;6.63;3.20;;;;;;;27.50;46.74;101781.22;5010985;28;20062;-50
2023/06/21 10:28:16;;;;;;;9.00;3.33;;;;;;;27.43;46.74;101794.88;5011450;28;20551;-48
2023/06/21 10:30:44;;;;;;;7.00;3.40;;;;;;;27.54;46.13;101793.56;5011346;28;20241;-47
2023/06/21 10:33:11;;;;;;;6.55;3.42;;;;;;;27.71;46.22;101786.53;5011730;28;20049;-49
2023/06/21 10:35:42;;;;;;;5.13;2.97;;;;;;;28.13;45.25;101789.16;5010885;28;20091;-46
2023/06/21 10:38:14;;;;;;;6.05;2.83;;;;;;;27.64;46.01;101789.53;5011464;28;20045;-53
2023/06/21 10:40:40;;;;;;;7.35;3.15;;;;;;;27.85;44.16;101785.94;5011003;28;20034;-51
2023/06/21 10:43:07;;;;;;;5.32;2.92;;;;;;;27.40;44.61;101784.28;5011350;28;20037;-48
2023/06/21 10:45:34;;;;;;;4.57;2.28;;;;;;;26.77;43.72;101789.56;5010325;28;20037;-52
2023/06/21 10:47:59;;;;;;;6.25;2.75;;;;;;;27.10;44.67;101793.56;5011220;28;20040;-48
2023/06/21 10:50:26;;;;;;;5.50;2.90;;;;;;;27.32;44.90;101798.94;5010708;28;20026;-47
2023/06/21 10:52:58;;;;;;;7.03;3.10;;;;;;;27.33;45.13;101796.16;5011092;28;20041;-50
2023/06/21 10:55:23;;;;;;;7.05;2.97;;;;;;;27.43;45.40;101808.25;5010867;28;20229;-48
2023/06/21 10:57:53;;;;;;;7.70;3.13;;;;;;;27.64;45.11;101802.94;5010514;28;20029;-49
2023/06/21 11:00:23;;;;;;;4.63;2.15;;;;;;;27.42;44.82;101821.72;5010721;28;20073;-50
2023/06/21 11:02:49;;;;;;;3.67;2.20;;;;;;;27.77;42.76;101817.56;5011092;28;20550;-49
2023/06/21 11:05:21;;;;;;;5.47;2.63;;;;;;;28.06;44.33;101817.16;5010425;28;20121;-47
2023/06/21 11:07:47;;;;;;;8.07;3.65;;;;;;;27.79;45.27;101821.06;5010043;28;20030;-48
2023/06/21 11:10:12;;;;;;;7.37;3.20;;;;;;;28.19;44.96;101837.16;5010781;28;20056;-48
2023/06/21 11:12:38;;;;;;;8.93;3.40;;;;;;;28.20;44.58;101838.03;5010507;28;20276;-47
2023/06/21 11:15:05;;;;;;;5.38;2.90;;;;;;;28.78;43.29;101835.38;5010922;28;20034;-47
2023/06/21 11:17:34;;;;;;;5.75;2.80;;;;;;;29.21;42.09;101828.81;5009970;28;20045;-46
2023/06/21 11:20:20;;;;;;;6.57;3.45;;;;;;;28.44;44.97;101850.31;5010391;28;20026;-47